Time;durP1;ratioP1;P1;durP2;ratioP2;P2;SDS_P1;SDS_P2;PMS_P1;PMS_P2;Temp;Humidity;BMP_temperature;BMP_pressure;BME280_temperature;BME280_humidity;BME280_pressure;Samples;Min_cycle;Max_cycle;Signal;HPM_P1;HPM_P2
2022/03/13 00:01:03;;;;;;;30.10;10.52;;;;;;;-0.70;38.38;101046.97;4426435;32;34902;-76
2022/03/13 00:03:50;;;;;;;21.75;9.82;;;;;;;-0.82;39.04;101029.75;4434950;32;34250;-76
2022/03/13 00:06:39;;;;;;;24.90;9.93;;;;;;;-1.14;39.47;101036.63;4434506;32;34775;-76
2022/03/13 00:09:25;;;;;;;22.67;9.93;;;;;;;-1.27;40.25;101029.34;4434179;32;35120;-76
2022/03/13 00:12:15;;;;;;;24.08;10.10;;;;;;;-0.98;39.96;101030.94;4435169;32;35023;-76
2022/03/13 00:15:09;;;;;;;22.85;9.35;;;;;;;-1.02;39.84;101029.69;4434660;32;34769;-76
2022/03/13 00:17:56;;;;;;;24.00;9.98;;;;;;;-0.99;39.62;101025.75;4418416;32;34042;-75
2022/03/13 00:20:43;;;;;;;24.15;10.10;;;;;;;-1.00;39.11;101022.22;4434552;32;35556;-75
2022/03/13 00:23:31;;;;;;;23.45;8.73;;;;;;;-2.24;41.78;101026.59;4434748;32;34719;-75
2022/03/13 00:26:18;;;;;;;20.42;9.43;;;;;;;-2.05;41.92;101018.72;4434451;32;34701;-75
2022/03/13 00:29:06;;;;;;;27.52;12.20;;;;;;;-2.54;43.40;101027.53;4435013;32;33253;-76
2022/03/13 00:31:53;;;;;;;29.85;11.35;;;;;;;-2.91;45.09;101025.88;4434640;32;34692;-75
2022/03/13 00:34:39;;;;;;;26.75;11.30;;;;;;;-3.26;46.20;101028.34;4422354;32;34912;-75
2022/03/13 00:37:25;;;;;;;26.50;10.73;;;;;;;-3.05;45.65;101016.84;4433388;32;36123;-76
2022/03/13 00:40:12;;;;;;;25.88;9.95;;;;;;;-2.24;43.28;101018.53;4434821;32;35159;-76
2022/03/13 00:43:00;;;;;;;29.45;10.55;;;;;;;-2.15;42.54;101031.62;4427747;32;35519;-76
2022/03/13 00:45:46;;;;;;;26.27;9.98;;;;;;;-1.79;41.47;101021.78;4424866;32;33343;-75
2022/03/13 00:48:33;;;;;;;22.60;9.23;;;;;;;-1.76;41.51;101016.87;4429396;32;34747;-76
2022/03/13 00:51:19;;;;;;;20.50;7.82;;;;;;;-1.83;41.49;101014.09;4432884;32;35076;-76
2022/03/13 00:54:06;;;;;;;19.60;8.00;;;;;;;-1.94;41.72;101020.00;4426028;32;33577;-75
2022/03/13 00:56:54;;;;;;;20.77;7.95;;;;;;;-1.94;41.93;101022.69;4433999;32;35936;-75
2022/03/13 00:59:40;;;;;;;17.70;8.18;;;;;;;-1.71;41.28;101025.12;4433622;32;34503;-75
2022/03/13 01:02:26;;;;;;;23.70;8.65;;;;;;;-1.73;41.25;101016.47;4428621;32;35023;-75
2022/03/13 01:05:21;;;;;;;22.48;9.10;;;;;;;-2.01;42.50;101008.41;4434462;32;34601;-75
2022/03/13 01:08:07;;;;;;;20.62;8.45;;;;;;;-2.12;42.55;101007.06;4433418;32;36027;-75
2022/03/13 01:10:54;;;;;;;19.73;7.78;;;;;;;-2.20;42.52;101007.22;4434427;32;34695;-75
2022/03/13 01:13:41;;;;;;;20.73;7.70;;;;;;;-2.18;42.32;101007.03;4429010;32;34082;-75
2022/03/13 01:16:37;;;;;;;14.32;6.60;;;;;;;-2.21;42.42;101007.41;4434567;32;34721;-76
2022/03/13 01:19:24;;;;;;;17.60;7.00;;;;;;;-2.43;42.63;101004.72;4425704;32;34563;-75
2022/03/13 01:22:11;;;;;;;19.48;7.18;;;;;;;-2.46;42.48;100991.69;4434230;32;34096;-76
2022/03/13 01:24:57;;;;;;;15.10;6.40;;;;;;;-2.22;42.24;101001.22;4411783;32;34127;-75
2022/03/13 01:27:43;;;;;;;15.25;6.00;;;;;;;-2.81;43.54;100999.59;4413065;32;34531;-76
2022/03/13 01:30:30;;;;;;;14.10;5.75;;;;;;;-2.83;43.68;101004.31;4433342;32;34787;-75
2022/03/13 01:33:16;;;;;;;31.45;12.73;;;;;;;-2.52;43.11;101003.19;4426932;32;34603;-76
2022/03/13 01:36:03;;;;;;;21.12;8.73;;;;;;;-2.23;42.58;101010.28;4433657;32;34878;-75
2022/03/13 01:38:55;;;;;;;22.23;9.77;;;;;;;-2.38;42.74;101007.69;4433971;32;34196;-75
2022/03/13 01:41:42;;;;;;;21.02;8.10;;;;;;;-1.99;41.85;100995.63;4433490;32;34980;-75
2022/03/13 01:44:28;;;;;;;20.05;8.52;;;;;;;-1.93;41.65;101000.19;4433911;32;36163;-75
2022/03/13 01:47:14;;;;;;;18.87;8.05;;;;;;;-1.98;42.23;100999.13;4433583;32;34493;-75
2022/03/13 01:50:00;;;;;;;19.65;8.27;;;;;;;-2.10;42.76;100985.41;4427186;32;34445;-75
2022/03/13 01:52:48;;;;;;;20.77;8.25;;;;;;;-2.21;43.51;100985.94;4433583;32;35916;-75
2022/03/13 01:55:34;;;;;;;22.60;8.70;;;;;;;-2.34;43.91;100994.69;4424621;32;35500;-74
2022/03/13 01:58:20;;;;;;;24.63;9.77;;;;;;;-2.32;43.99;100988.09;4425429;32;34066;-75
2022/03/13 02:01:08;;;;;;;21.37;8.73;;;;;;;-2.64;44.78;100980.59;4427605;32;35627;-75
2022/03/13 02:03:55;;;;;;;21.23;8.15;;;;;;;-2.43;44.73;100982.44;4433794;32;34897;-75
2022/03/13 02:06:42;;;;;;;16.20;7.65;;;;;;;-2.65;44.35;100985.09;4424723;32;35515;-75
2022/03/13 02:09:28;;;;;;;16.27;7.30;;;;;;;-4.66;47.19;100981.72;4433903;32;33001;-75
2022/03/13 02:12:18;;;;;;;17.00;7.75;;;;;;;-3.19;45.01;100978.34;4432198;32;34060;-75
2022/03/13 02:15:05;;;;;;;19.98;7.47;;;;;;;-2.75;44.03;100976.56;4435302;32;35605;-75
2022/03/13 02:17:51;;;;;;;20.25;7.95;;;;;;;-3.07;45.17;100969.81;4430498;32;34715;-75
2022/03/13 02:20:43;;;;;;;22.50;9.65;;;;;;;-3.60;46.43;100958.44;4436264;32;34123;-75
2022/03/13 02:23:30;;;;;;;21.10;8.27;;;;;;;-3.66;46.60;100960.00;4434555;32;35587;-74
2022/03/13 02:26:20;;;;;;;24.77;8.40;;;;;;;-2.96;45.38;100972.84;4435692;32;34964;-74
2022/03/13 02:29:10;;;;;;;20.52;8.18;;;;;;;-3.25;44.51;100962.16;4427118;32;34740;-74
2022/03/13 02:31:58;;;;;;;19.60;8.18;;;;;;;-3.07;44.37;100965.28;4435295;32;34267;-74
2022/03/13 02:34:45;;;;;;;27.05;8.77;;;;;;;-5.45;50.05;100966.63;4423538;32;111634;-75
2022/03/13 02:37:35;;;;;;;15.77;7.50;;;;;;;-3.69;46.62;100963.88;4435534;32;35011;-74
2022/03/13 02:40:23;;;;;;;19.83;7.85;;;;;;;-5.69;50.71;100966.72;4434499;32;34883;-75
2022/03/13 02:43:10;;;;;;;20.85;7.78;;;;;;;-5.17;50.89;100966.16;4435742;32;34049;-75
2022/03/13 02:45:57;;;;;;;16.23;6.75;;;;;;;-4.37;48.65;100964.91;4426803;32;34697;-75
2022/03/13 02:48:45;;;;;;;16.37;7.00;;;;;;;-3.53;46.27;100953.97;4425701;32;36052;-75
2022/03/13 02:51:31;;;;;;;18.10;7.78;;;;;;;-3.24;45.00;100963.84;4427172;32;34670;-74
2022/03/13 02:54:19;;;;;;;21.45;8.25;;;;;;;-3.16;44.79;100961.03;4435361;32;35159;-74
2022/03/13 02:57:05;;;;;;;17.75;7.75;;;;;;;-3.28;45.33;100955.34;4435522;32;34714;-74
2022/03/13 02:59:52;;;;;;;15.75;7.03;;;;;;;-3.25;45.63;100951.44;4435483;32;36018;-74
2022/03/13 03:02:38;;;;;;;16.73;7.25;;;;;;;-3.19;45.61;100956.91;4435620;32;34695;-74
2022/03/13 03:05:25;;;;;;;21.77;8.80;;;;;;;-3.17;45.55;100954.84;4435124;32;34742;-74
2022/03/13 03:08:11;;;;;;;24.55;8.27;;;;;;;-3.11;45.70;100952.44;4434664;32;34799;-74
2022/03/13 03:10:58;;;;;;;18.02;7.65;;;;;;;-3.23;45.85;100958.28;4435036;32;36159;-74
2022/03/13 03:13:44;;;;;;;15.95;7.97;;;;;;;-3.33;46.09;100952.41;4434941;32;34686;-74
2022/03/13 03:16:32;;;;;;;18.23;7.65;;;;;;;-3.37;46.59;100956.47;4434418;32;34254;-75
2022/03/13 03:19:18;;;;;;;16.58;6.80;;;;;;;-3.58;46.81;100945.69;4435124;32;34315;-74
2022/03/13 03:22:04;;;;;;;17.40;6.60;;;;;;;-3.11;45.67;100952.44;4423598;32;35015;-74
2022/03/13 03:24:51;;;;;;;25.40;10.32;;;;;;;-3.08;45.02;100954.72;4427702;32;34643;-74
2022/03/13 03:27:40;;;;;;;18.62;8.73;;;;;;;-3.23;45.80;100944.06;4435015;32;34253;-75
2022/03/13 03:30:29;;;;;;;24.48;10.02;;;;;;;-4.15;48.22;100937.28;4435172;32;34640;-74
2022/03/13 03:33:16;;;;;;;22.83;9.10;;;;;;;-3.22;46.59;100945.72;4435219;32;34845;-74
2022/03/13 03:36:02;;;;;;;24.58;10.63;;;;;;;-3.06;46.31;100948.16;4434866;32;35627;-74
2022/03/13 03:38:49;;;;;;;26.65;11.88;;;;;;;-2.98;46.37;100941.87;4435334;32;35392;-74
2022/03/13 03:41:36;;;;;;;22.75;9.07;;;;;;;-4.00;48.70;100931.94;4426393;32;34628;-74
2022/03/13 03:44:23;;;;;;;16.15;7.07;;;;;;;-3.38;47.48;100932.53;4427150;32;34953;-74
2022/03/13 03:47:10;;;;;;;17.45;7.03;;;;;;;-3.08;45.54;100935.97;4431309;32;33982;-74
2022/03/13 03:49:56;;;;;;;14.50;6.85;;;;;;;-3.19;45.01;100930.09;4429620;32;34991;-74
2022/03/13 03:52:44;;;;;;;12.85;5.97;;;;;;;-3.32;45.36;100927.25;4435263;32;34582;-74
2022/03/13 03:55:31;;;;;;;16.77;6.65;;;;;;;-4.85;48.38;100932.19;4435265;32;34819;-74
2022/03/13 03:58:21;;;;;;;22.45;7.50;;;;;;;-3.85;46.68;100929.25;4429000;32;34760;-74
2022/03/13 04:01:07;;;;;;;16.65;7.12;;;;;;;-3.50;46.01;100926.81;4434968;32;34205;-75
2022/03/13 04:03:54;;;;;;;17.90;7.30;;;;;;;-3.35;45.40;100929.50;4434298;32;34822;-75
2022/03/13 04:06:40;;;;;;;18.12;7.65;;;;;;;-3.29;45.33;100934.91;4428421;32;35542;-74
2022/03/13 04:09:27;;;;;;;26.35;9.95;;;;;;;-3.41;45.54;100936.44;4434466;32;35578;-74
2022/03/13 04:12:13;;;;;;;26.95;10.93;;;;;;;-3.64;47.53;100931.19;4428564;32;35131;-74
2022/03/13 04:15:01;;;;;;;29.12;11.32;;;;;;;-3.77;48.75;100931.00;4435290;32;35531;-73
2022/03/13 04:17:48;;;;;;;30.75;11.48;;;;;;;-3.72;48.62;100926.75;4435052;32;35101;-73
2022/03/13 04:20:34;;;;;;;24.42;10.13;;;;;;;-3.73;48.57;100925.09;4434305;32;34595;-74
2022/03/13 04:23:21;;;;;;;16.02;7.07;;;;;;;-3.90;48.73;100919.09;4434941;32;35151;-73
2022/03/13 04:26:07;;;;;;;19.10;8.30;;;;;;;-5.40;50.94;100930.56;4434193;32;34631;-74
2022/03/13 04:28:54;;;;;;;14.23;6.65;;;;;;;-4.38;49.28;100923.12;4434342;32;35030;-74
2022/03/13 04:31:41;;;;;;;15.23;5.35;;;;;;;-4.75;48.09;100927.44;4435059;32;34655;-74
2022/03/13 04:34:35;;;;;;;21.20;7.47;;;;;;;-4.64;47.60;100924.34;4430845;32;35425;-74
2022/03/13 04:37:22;;;;;;;14.23;6.10;;;;;;;-4.81;47.97;100918.31;4434882;32;34650;-74
2022/03/13 04:40:10;;;;;;;17.25;6.60;;;;;;;-3.95;46.55;100920.69;4435020;32;35624;-74
2022/03/13 04:42:56;;;;;;;17.85;8.80;;;;;;;-3.49;45.72;100915.09;4435021;32;34631;-74
2022/03/13 04:45:43;;;;;;;19.50;9.43;;;;;;;-3.39;46.18;100907.56;4434637;32;34272;-74
2022/03/13 04:48:32;;;;;;;16.33;7.28;;;;;;;-3.30;46.61;100909.16;4434440;32;35118;-74
2022/03/13 04:51:19;;;;;;;15.20;7.12;;;;;;;-4.35;47.81;100906.72;4414886;32;35962;-73
2022/03/13 04:54:08;;;;;;;21.85;7.50;;;;;;;-3.96;47.57;100908.28;4425054;32;34681;-74
2022/03/13 04:56:56;;;;;;;19.05;7.90;;;;;;;-3.64;46.59;100907.09;4433436;32;35019;-73
2022/03/13 04:59:43;;;;;;;22.13;8.30;;;;;;;-3.69;46.49;100910.31;4434527;32;34901;-73
2022/03/13 05:02:29;;;;;;;15.88;8.05;;;;;;;-3.57;46.55;100907.16;4433922;32;34979;-74
2022/03/13 05:05:17;;;;;;;16.65;6.62;;;;;;;-3.53;46.96;100903.06;4433537;32;35548;-74
2022/03/13 05:08:05;;;;;;;18.25;6.95;;;;;;;-3.40;45.40;100901.37;4434333;32;34163;-74
2022/03/13 05:10:52;;;;;;;13.35;5.80;;;;;;;-3.37;45.52;100902.88;4434166;32;35570;-74
2022/03/13 05:13:38;;;;;;;21.85;8.13;;;;;;;-3.34;45.60;100913.19;4417395;32;34977;-74
2022/03/13 05:16:24;;;;;;;19.52;8.13;;;;;;;-3.62;46.36;100916.56;4427689;32;34257;-73
2022/03/13 05:19:10;;;;;;;23.30;10.10;;;;;;;-3.20;45.82;100912.34;4433814;32;34052;-74
2022/03/13 05:21:58;;;;;;;23.20;9.45;;;;;;;-4.00;47.88;100923.06;4427325;32;34616;-74
2022/03/13 05:24:46;;;;;;;28.83;11.80;;;;;;;-3.41;47.22;100923.03;4434456;32;34583;-74
2022/03/13 05:27:32;;;;;;;26.25;10.77;;;;;;;-3.46;47.82;100917.41;4434135;32;35148;-74
2022/03/13 05:30:21;;;;;;;19.45;8.95;;;;;;;-3.21;47.40;100923.25;4434424;32;34470;-73
2022/03/13 05:33:08;;;;;;;21.58;9.10;;;;;;;-3.30;47.25;100922.53;4434303;32;35601;-74
2022/03/13 05:35:55;;;;;;;19.20;8.13;;;;;;;-3.21;46.51;100921.41;4434342;32;36658;-74
2022/03/13 05:38:41;;;;;;;15.70;6.93;;;;;;;-3.22;46.59;100922.41;4434442;32;34649;-74
2022/03/13 05:41:28;;;;;;;15.48;6.28;;;;;;;-3.58;46.17;100918.91;4433660;32;34240;-73
2022/03/13 05:44:15;;;;;;;13.25;6.03;;;;;;;-4.35;46.55;100922.75;4433999;32;35407;-74
2022/03/13 05:47:01;;;;;;;15.70;6.60;;;;;;;-3.71;45.90;100925.72;4429703;32;35006;-73
2022/03/13 05:49:48;;;;;;;19.67;8.15;;;;;;;-5.71;50.20;100926.00;4435883;32;34343;-73
2022/03/13 05:52:35;;;;;;;16.40;7.35;;;;;;;-6.17;52.70;100925.84;4435251;32;34462;-74
2022/03/13 05:55:23;;;;;;;16.55;6.72;;;;;;;-5.41;50.70;100927.03;4435444;32;34605;-73
2022/03/13 05:58:09;;;;;;;14.13;6.15;;;;;;;-5.66;50.75;100926.31;4429673;32;34989;-74
2022/03/13 06:01:05;;;;;;;15.32;5.90;;;;;;;-5.66;51.71;100923.66;4435817;32;34149;-74
2022/03/13 06:03:53;;;;;;;13.52;6.10;;;;;;;-4.30;48.29;100926.56;4435609;32;35081;-74
2022/03/13 06:06:40;;;;;;;12.63;5.03;;;;;;;-4.02;47.24;100917.06;4435964;32;35525;-74
2022/03/13 06:09:26;;;;;;;13.05;5.40;;;;;;;-3.63;46.36;100919.44;4435914;32;35944;-74
2022/03/13 06:12:16;;;;;;;13.43;5.60;;;;;;;-3.45;45.71;100924.41;4429017;32;34322;-74
2022/03/13 06:15:05;;;;;;;10.52;4.75;;;;;;;-3.17;45.78;100927.22;4435484;32;34212;-74
2022/03/13 06:17:53;;;;;;;13.48;5.55;;;;;;;-2.62;44.30;100935.59;4435486;32;35553;-74
2022/03/13 06:20:40;;;;;;;12.65;5.57;;;;;;;-2.51;43.89;100927.84;4435893;32;34671;-74
2022/03/13 06:23:28;;;;;;;12.43;5.53;;;;;;;-2.19;43.29;100928.34;4434479;32;33800;-74
2022/03/13 06:26:15;;;;;;;12.52;5.87;;;;;;;-2.02;43.12;100934.22;4426120;32;33893;-74
2022/03/13 06:29:01;;;;;;;12.10;5.87;;;;;;;-1.93;42.43;100938.41;4426392;32;35207;-74
2022/03/13 06:31:47;;;;;;;11.43;5.20;;;;;;;-1.94;43.05;100941.28;4434543;32;35179;-74
2022/03/13 06:34:34;;;;;;;15.05;6.18;;;;;;;-2.57;43.19;100944.72;4428903;32;35526;-74
2022/03/13 06:37:21;;;;;;;14.48;6.03;;;;;;;-2.60;43.38;100941.59;4431937;32;34209;-75
2022/03/13 06:40:09;;;;;;;12.82;6.55;;;;;;;-2.42;43.42;100938.44;4434655;32;34633;-74
2022/03/13 06:42:57;;;;;;;16.35;6.15;;;;;;;-2.43;43.95;100943.00;4435562;32;34741;-75
2022/03/13 06:45:43;;;;;;;13.70;5.95;;;;;;;-1.54;42.73;100954.94;4430080;32;34599;-75
2022/03/13 06:48:31;;;;;;;15.05;5.93;;;;;;;-1.15;41.72;100952.44;4424334;32;34130;-75
2022/03/13 06:51:17;;;;;;;14.27;5.70;;;;;;;-0.85;39.47;100953.97;4423668;32;35522;-75
2022/03/13 06:54:03;;;;;;;11.90;6.22;;;;;;;-1.12;39.37;100955.75;4434962;32;34969;-75
2022/03/13 06:56:50;;;;;;;12.55;5.18;;;;;;;-1.05;39.03;100946.69;4434791;32;35302;-75
2022/03/13 06:59:36;;;;;;;12.45;6.22;;;;;;;-0.51;38.88;100955.69;4435043;32;33022;-75
2022/03/13 07:02:23;;;;;;;12.15;6.15;;;;;;;-0.25;37.96;100944.09;4434890;32;34841;-75
2022/03/13 07:05:09;;;;;;;13.48;5.60;;;;;;;-0.09;37.51;100949.03;4426520;32;35906;-75
2022/03/13 07:07:57;;;;;;;12.40;5.82;;;;;;;-0.13;37.82;100945.13;4434699;32;34571;-75
2022/03/13 07:10:43;;;;;;;14.25;6.68;;;;;;;-0.24;38.31;100956.53;4434887;32;35129;-75
2022/03/13 07:13:32;;;;;;;12.10;6.05;;;;;;;-0.05;38.17;100949.47;4435158;32;34927;-75
2022/03/13 07:16:19;;;;;;;15.77;6.22;;;;;;;-0.24;37.60;100949.25;4430102;32;36007;-75
2022/03/13 07:19:05;;;;;;;16.45;7.12;;;;;;;0.33;36.99;100941.50;4422943;32;35755;-75
2022/03/13 07:21:52;;;;;;;13.95;6.32;;;;;;;0.43;36.77;100947.31;4434985;32;34476;-75
2022/03/13 07:24:39;;;;;;;17.25;7.00;;;;;;;-0.51;37.94;100950.31;4434967;32;35267;-75
2022/03/13 07:27:25;;;;;;;14.55;6.43;;;;;;;0.07;37.26;100946.97;4430613;32;34946;-75
2022/03/13 07:30:12;;;;;;;16.52;7.05;;;;;;;1.01;36.34;100949.13;4433935;32;35539;-74
2022/03/13 07:33:01;;;;;;;19.05;7.97;;;;;;;1.45;34.82;100951.97;4425135;32;34226;-75
2022/03/13 07:35:47;;;;;;;17.10;7.95;;;;;;;1.63;33.82;100951.25;4434762;32;35637;-75
2022/03/13 07:38:33;;;;;;;17.15;7.22;;;;;;;1.26;34.26;100951.06;4434058;32;35002;-75
2022/03/13 07:41:19;;;;;;;13.48;7.40;;;;;;;1.75;34.24;100954.88;4435159;32;35261;-75
2022/03/13 07:44:06;;;;;;;18.73;8.82;;;;;;;1.95;35.13;100963.63;4434717;32;35222;-74
2022/03/13 07:46:52;;;;;;;19.25;10.48;;;;;;;2.47;34.21;100958.72;4434368;32;35554;-75
2022/03/13 07:49:38;;;;;;;19.12;8.85;;;;;;;2.19;35.71;100956.56;4422220;32;34705;-74
2022/03/13 07:52:25;;;;;;;16.25;8.32;;;;;;;2.57;34.91;100958.22;4434552;32;35102;-75
2022/03/13 07:55:17;;;;;;;17.08;8.00;;;;;;;2.70;33.89;100952.66;4423639;32;35030;-74
2022/03/13 07:58:03;;;;;;;14.52;6.72;;;;;;;3.15;34.59;100957.69;4434251;32;35526;-74
2022/03/13 08:00:50;;;;;;;17.60;8.07;;;;;;;3.15;31.68;100954.16;4427063;32;34731;-73
2022/03/13 08:03:38;;;;;;;14.00;7.53;;;;;;;3.07;31.03;100958.00;4422892;32;37024;-74
2022/03/13 08:06:24;;;;;;;16.62;7.55;;;;;;;3.42;31.04;100959.22;4434295;32;34295;-74
2022/03/13 08:09:11;;;;;;;17.33;7.07;;;;;;;3.83;30.32;100955.63;4432810;32;35617;-74
2022/03/13 08:11:57;;;;;;;14.93;7.25;;;;;;;4.10;29.14;100953.31;4428497;32;34856;-74
2022/03/13 08:14:43;;;;;;;16.77;7.22;;;;;;;3.30;28.77;100951.87;4434366;32;34822;-73
2022/03/13 08:17:30;;;;;;;15.52;7.70;;;;;;;3.84;29.49;100954.56;4434553;32;34013;-73
2022/03/13 08:20:20;;;;;;;17.00;8.43;;;;;;;4.54;29.50;100951.00;4434335;32;34285;-73
2022/03/13 08:23:06;;;;;;;14.93;7.45;;;;;;;4.92;28.81;100955.87;4434350;32;36156;-73
2022/03/13 08:25:52;;;;;;;17.33;9.02;;;;;;;5.23;28.12;100952.91;4434117;32;35527;-73
2022/03/13 08:28:41;;;;;;;15.23;8.52;;;;;;;4.87;27.99;100953.06;4433745;32;34861;-73
2022/03/13 08:31:27;;;;;;;14.00;7.80;;;;;;;5.35;27.33;100954.53;4429277;32;36995;-73
2022/03/13 08:34:13;;;;;;;14.23;7.57;;;;;;;5.95;26.32;100955.00;4425706;32;34572;-73
2022/03/13 08:37:00;;;;;;;13.27;7.18;;;;;;;5.99;25.63;100950.72;4434249;32;34373;-73
2022/03/13 08:39:46;;;;;;;12.35;6.40;;;;;;;6.35;25.65;100943.06;4429794;32;34232;-74
2022/03/13 08:42:33;;;;;;;14.95;6.78;;;;;;;6.27;23.40;100939.72;4434233;32;34738;-73
2022/03/13 08:45:19;;;;;;;16.08;7.40;;;;;;;5.67;23.55;100939.56;4433616;32;34897;-73
2022/03/13 08:48:05;;;;;;;15.43;8.05;;;;;;;6.29;24.23;100937.56;4434155;32;34585;-73
2022/03/13 08:50:52;;;;;;;14.40;6.87;;;;;;;6.87;24.60;100937.22;4433611;32;35114;-73
2022/03/13 08:53:38;;;;;;;11.10;5.20;;;;;;;7.17;23.42;100934.00;4433527;32;35287;-73
2022/03/13 08:56:25;;;;;;;10.32;5.62;;;;;;;7.20;22.80;100923.41;4427137;32;34909;-73
2022/03/13 08:59:12;;;;;;;12.37;5.93;;;;;;;7.72;21.34;100932.06;4434384;32;34747;-74
2022/03/13 09:01:58;;;;;;;9.63;5.62;;;;;;;7.34;21.37;100925.72;4434640;32;35109;-73
2022/03/13 09:04:45;;;;;;;13.85;6.10;;;;;;;7.81;21.43;100927.78;4434203;32;35655;-73
2022/03/13 09:07:31;;;;;;;10.90;5.30;;;;;;;7.84;20.96;100933.53;4424423;32;34911;-74
2022/03/13 09:10:18;;;;;;;14.70;5.07;;;;;;;7.12;20.75;100926.59;4426816;32;34824;-74
2022/03/13 09:13:05;;;;;;;12.25;5.85;;;;;;;7.41;20.95;100929.06;4434302;32;35053;-74
2022/03/13 09:15:52;;;;;;;11.63;5.20;;;;;;;6.89;21.06;100916.00;4434076;32;34728;-73
2022/03/13 09:18:39;;;;;;;11.05;5.47;;;;;;;6.36;21.44;100922.94;4432927;32;34584;-73
2022/03/13 09:21:26;;;;;;;11.20;4.90;;;;;;;7.38;20.99;100915.94;4425224;32;34674;-74
2022/03/13 09:24:12;;;;;;;9.82;4.60;;;;;;;7.97;19.99;100921.34;4433477;32;34141;-74
2022/03/13 09:27:02;;;;;;;10.57;4.60;;;;;;;8.65;19.81;100909.72;4433060;32;34628;-75
2022/03/13 09:29:48;;;;;;;10.88;4.82;;;;;;;9.51;18.55;100905.56;4426961;32;34576;-75
2022/03/13 09:32:34;;;;;;;11.30;5.12;;;;;;;9.75;18.41;100903.09;4433866;32;34793;-75
2022/03/13 09:35:24;;;;;;;12.43;5.30;;;;;;;10.09;17.84;100914.28;4433799;32;34249;-75
2022/03/13 09:38:11;;;;;;;10.68;6.35;;;;;;;10.12;17.87;100913.72;4431332;32;35489;-75
2022/03/13 09:40:57;;;;;;;13.85;6.00;;;;;;;10.74;16.99;100906.97;4424753;32;34964;-75
2022/03/13 09:43:45;;;;;;;15.55;7.47;;;;;;;10.65;17.31;100913.34;4433502;32;34209;-75
2022/03/13 09:46:31;;;;;;;11.88;5.80;;;;;;;11.50;15.99;100904.91;4429174;32;34079;-76
2022/03/13 09:49:20;;;;;;;11.75;6.53;;;;;;;11.76;15.59;100900.00;4433393;32;35117;-76
2022/03/13 09:52:07;;;;;;;13.68;6.57;;;;;;;12.20;16.85;100899.06;4411274;32;35798;-76
2022/03/13 09:54:54;;;;;;;13.50;7.05;;;;;;;12.20;15.52;100899.06;4433588;32;35618;-76
2022/03/13 09:57:41;;;;;;;13.32;7.53;;;;;;;11.46;15.70;100874.44;4426807;32;34628;-76
2022/03/13 10:00:28;;;;;;;13.57;7.37;;;;;;;12.39;16.31;100868.91;4432715;32;34616;-75
2022/03/13 10:03:15;;;;;;;11.65;6.40;;;;;;;10.13;17.50;100877.00;4432982;32;35428;-76
2022/03/13 10:06:01;;;;;;;12.68;6.85;;;;;;;10.66;17.72;100882.09;4432822;32;35085;-76
2022/03/13 10:08:48;;;;;;;15.18;8.65;;;;;;;10.65;17.60;100886.75;4433014;32;34467;-76
2022/03/13 10:11:34;;;;;;;15.05;7.40;;;;;;;11.81;16.44;100875.25;4423692;32;34587;-76
2022/03/13 10:14:21;;;;;;;15.88;7.78;;;;;;;12.38;15.99;100870.84;4433173;32;35922;-76
2022/03/13 10:17:28;;;;;;;12.27;6.62;;;;;;;10.05;17.47;100872.94;4431791;32;34656;-76
2022/03/13 10:20:14;;;;;;;12.60;6.87;;;;;;;9.53;17.14;100876.00;4421905;32;34161;-76
2022/03/13 10:23:00;;;;;;;10.43;6.10;;;;;;;8.76;18.60;100881.34;4433365;32;35616;-76
2022/03/13 10:25:52;;;;;;;12.68;6.65;;;;;;;11.50;16.00;100871.97;4432867;32;34618;-76
2022/03/13 10:28:40;;;;;;;13.50;7.17;;;;;;;12.26;16.11;100866.84;4432729;32;35499;-76
2022/03/13 10:31:31;;;;;;;16.33;6.85;;;;;;;11.59;16.54;100861.19;4433820;32;34103;-76
2022/03/13 10:34:23;;;;;;;12.30;6.47;;;;;;;10.99;16.09;100864.09;4434749;32;34634;-77
2022/03/13 10:37:09;;;;;;;12.07;7.25;;;;;;;12.55;14.61;100867.59;4434110;32;35934;-76
2022/03/13 10:40:13;;;;;;;12.70;8.18;;;;;;;13.04;14.54;100868.31;4434965;32;34689;-77
2022/03/13 10:43:04;;;;;;;15.45;8.35;;;;;;;13.32;13.80;100863.81;4424560;32;33360;-77
2022/03/13 10:45:53;;;;;;;12.88;7.95;;;;;;;12.97;14.80;100854.91;4423790;32;37047;-77
2022/03/13 10:48:43;;;;;;;11.73;7.75;;;;;;;13.82;14.24;100861.28;4433964;32;35986;-76
2022/03/13 10:51:36;;;;;;;14.85;7.80;;;;;;;11.20;16.50;100853.78;4431218;32;35175;-76
2022/03/13 10:54:31;;;;;;;14.10;8.50;;;;;;;12.17;15.74;100857.59;4440060;32;35082;-75
2022/03/13 10:57:19;;;;;;;13.52;8.63;;;;;;;12.82;15.25;100860.66;4439907;32;34710;-76
2022/03/13 11:00:11;;;;;;;13.48;8.02;;;;;;;13.24;15.47;100851.50;4439841;32;35154;-76
2022/03/13 11:03:11;;;;;;;13.13;7.72;;;;;;;13.52;15.43;100853.56;4439972;32;35673;-76
2022/03/13 11:05:58;;;;;;;14.82;8.27;;;;;;;13.62;15.39;100851.44;4439892;32;34459;-75
2022/03/13 11:08:44;;;;;;;13.65;6.80;;;;;;;13.36;15.01;100844.75;4438711;32;34680;-75
2022/03/13 11:11:32;;;;;;;10.98;6.37;;;;;;;12.20;16.34;100846.03;4439994;32;36039;-76
2022/03/13 11:14:20;;;;;;;12.32;7.93;;;;;;;13.48;15.15;100840.37;4439811;32;35574;-75
2022/03/13 11:17:08;;;;;;;11.12;6.30;;;;;;;14.01;14.59;100839.19;4438972;32;34174;-75
2022/03/13 11:19:57;;;;;;;11.27;6.65;;;;;;;12.98;13.99;100834.56;4438844;32;35621;-75
2022/03/13 11:22:44;;;;;;;10.93;6.78;;;;;;;13.42;14.89;100833.34;4438889;32;36015;-74
2022/03/13 11:25:30;;;;;;;11.38;6.43;;;;;;;13.87;14.14;100835.59;4439948;32;34556;-75
2022/03/13 11:28:17;;;;;;;11.98;7.05;;;;;;;13.55;15.19;100829.00;4439682;32;35124;-76
2022/03/13 11:31:33;;;;;;;9.75;6.20;;;;;;;13.93;14.19;100835.19;4438807;32;35632;-76
2022/03/13 11:34:22;;;;;;;12.68;6.28;;;;;;;10.51;15.93;100831.72;4439947;32;34966;-76
2022/03/13 11:37:31;;;;;;;10.23;6.43;;;;;;;10.70;16.85;100811.88;4438732;32;35365;-76
2022/03/13 11:40:20;;;;;;;13.23;6.93;;;;;;;11.96;16.71;100819.38;4438685;32;35011;-75
2022/03/13 11:43:08;;;;;;;10.95;6.45;;;;;;;12.18;16.83;100815.28;4439483;32;35617;-75
2022/03/13 11:45:59;;;;;;;12.25;6.10;;;;;;;12.28;15.48;100804.97;4439773;32;35094;-76
2022/03/13 11:48:46;;;;;;;12.18;6.40;;;;;;;12.03;16.04;100813.53;4438583;32;34672;-75
2022/03/13 11:51:32;;;;;;;11.05;6.15;;;;;;;10.69;16.86;100813.81;4438677;32;35119;-76
2022/03/13 11:54:45;;;;;;;11.32;6.20;;;;;;;11.48;17.03;100805.56;4438721;32;34722;-76
2022/03/13 11:57:43;;;;;;;10.95;5.85;;;;;;;11.01;16.81;100796.03;4439662;32;36026;-76
2022/03/13 12:00:30;;;;;;;11.50;6.12;;;;;;;11.60;16.67;100796.94;4439439;32;35674;-75
2022/03/13 12:03:17;;;;;;;9.73;5.12;;;;;;;11.45;16.87;100795.97;4438493;32;34336;-74
2022/03/13 12:06:04;;;;;;;11.40;5.82;;;;;;;11.73;16.31;100792.69;4438632;32;34711;-75
2022/03/13 12:09:06;;;;;;;15.90;6.45;;;;;;;10.88;16.71;100783.81;4439421;32;35174;-74
2022/03/13 12:12:05;;;;;;;10.98;6.00;;;;;;;10.78;16.88;100778.38;4439509;32;35491;-75
2022/03/13 12:15:02;;;;;;;9.93;5.37;;;;;;;10.92;16.97;100778.56;4427955;32;34117;-75
2022/03/13 12:17:48;;;;;;;11.00;5.95;;;;;;;10.79;17.80;100769.88;4438609;32;34635;-76
2022/03/13 12:20:36;;;;;;;9.85;5.35;;;;;;;11.21;16.52;100768.47;4439401;32;35063;-75
2022/03/13 12:23:28;;;;;;;13.52;6.12;;;;;;;11.35;16.93;100762.31;4439316;32;35678;-76
2022/03/13 12:26:28;;;;;;;12.10;5.72;;;;;;;11.85;16.11;100757.41;4438538;32;35065;-74
2022/03/13 12:29:16;;;;;;;13.82;6.95;;;;;;;10.38;16.95;100761.09;4439461;32;34717;-75
2022/03/13 12:32:10;;;;;;;11.90;5.30;;;;;;;11.23;15.87;100754.47;4438786;32;36074;-74
2022/03/13 12:34:57;;;;;;;14.90;6.00;;;;;;;10.55;16.66;100755.22;4439808;32;35442;-75
2022/03/13 12:38:00;;;;;;;9.77;5.43;;;;;;;11.03;17.67;100755.44;4439094;32;34203;-74
2022/03/13 12:40:48;;;;;;;11.38;5.97;;;;;;;10.78;16.27;100759.19;4439484;32;34630;-74
2022/03/13 12:43:46;;;;;;;10.18;5.80;;;;;;;11.03;16.45;100750.78;4438581;32;35063;-75
2022/03/13 12:46:33;;;;;;;10.93;5.80;;;;;;;11.61;17.17;100754.63;4439390;32;35569;-76
2022/03/13 12:49:32;;;;;;;9.65;5.35;;;;;;;12.13;15.73;100742.00;4438170;32;34196;-76
2022/03/13 12:52:18;;;;;;;11.27;6.00;;;;;;;13.02;15.50;100750.31;4438129;32;34595;-75
2022/03/13 12:55:06;;;;;;;10.52;6.32;;;;;;;13.16;15.58;100749.53;4438613;32;36079;-75